Terminal Aerodrome Forecast
Issued by NWS Jacksonville, FL

Home | Current Version | Previous Version | Text Only | Print | Product List | Glossary On
Versions: 1 2 3 4 5 6 7 8 9 10 11 12
000
FTUS42 KJAX 041739
TAFGNV
TAF
KGNV 041739Z 0418/0518 09012KT P6SM FEW045 SCT060 BKN090
     FM050100 06004KT P6SM FEW035 SCT080 BKN250
     FM051200 06006KT P6SM SCT035 BKN050
     FM051500 07012G18KT P6SM SCT035 BKN080 OVC200=

USA.gov is the U.S. government's official web portal to all federal, state and local government web resources and services.